Time;durP1;ratioP1;P1;durP2;ratioP2;P2;SDS_P1;SDS_P2;PMS_P1;PMS_P2;Temp;Humidity;BMP_temperature;BMP_pressure;BME280_temperature;BME280_humidity;BME280_pressure;Samples;Min_cycle;Max_cycle;Signal;HPM_P1;HPM_P2
2022/11/28 00:01:15;;;;;;;32.58;16.85;;;;;;;;;;5007090;28;99941;-71
2022/11/28 00:03:42;;;;;;;28.02;16.67;;;;;;;;;;5008327;28;98211;-71
2022/11/28 00:06:08;;;;;;;31.83;17.85;;;;;;;;;;5011758;28;99403;-72
2022/11/28 00:08:35;;;;;;;26.80;17.45;;;;;;;;;;5007607;28;98585;-71
2022/11/28 00:11:05;;;;;;;36.28;18.52;;;;;;;;;;5007787;28;98640;-71
2022/11/28 00:13:32;;;;;;;28.13;15.20;;;;;;;;;;5008048;28;99957;-71
2022/11/28 00:15:59;;;;;;;27.33;16.25;;;;;;;;;;5007959;28;99595;-71
2022/11/28 00:18:26;;;;;;;33.00;15.88;;;;;;;;;;5008679;28;99829;-73
2022/11/28 00:20:57;;;;;;;25.33;16.83;;;;;;;;;;5007490;28;99161;-72
2022/11/28 00:23:24;;;;;;;24.92;15.85;;;;;;;;;;4988408;28;98314;-71
2022/11/28 00:25:57;;;;;;;25.15;15.18;;;;;;;;;;4988751;28;99396;-71
2022/11/28 00:28:23;;;;;;;31.80;16.90;;;;;;;;;;5010124;28;98623;-71
2022/11/28 00:30:49;;;;;;;26.75;16.02;;;;;;;;;;5006729;28;99632;-71
2022/11/28 00:33:16;;;;;;;28.52;16.52;;;;;;;;;;4988079;28;99961;-71
2022/11/28 00:35:42;;;;;;;29.77;16.13;;;;;;;;;;4986344;28;98376;-71
2022/11/28 00:38:09;;;;;;;23.08;15.43;;;;;;;;;;4987579;28;98905;-70
2022/11/28 00:40:35;;;;;;;27.63;16.60;;;;;;;;;;4986836;28;99280;-71
2022/11/28 00:43:01;;;;;;;21.98;14.65;;;;;;;;;;4988273;28;98386;-71
2022/11/28 00:45:28;;;;;;;22.10;14.60;;;;;;;;;;4987674;28;99632;-71
2022/11/28 00:47:54;;;;;;;23.67;14.88;;;;;;;;;;4990373;28;99055;-71
2022/11/28 00:50:20;;;;;;;24.40;14.25;;;;;;;;;;4990292;28;99367;-71
2022/11/28 00:52:47;;;;;;;20.85;14.13;;;;;;;;;;5005223;28;99894;-71
2022/11/28 00:55:13;;;;;;;16.10;11.50;;;;;;;;;;4989107;28;98373;-71
2022/11/28 00:57:39;;;;;;;24.75;15.20;;;;;;;;;;4986562;28;98633;-71
2022/11/28 01:00:06;;;;;;;26.45;15.30;;;;;;;;;;4991016;28;99413;-71
2022/11/28 01:02:33;;;;;;;27.05;16.35;;;;;;;;;;4989431;28;98254;-71
2022/11/28 01:05:00;;;;;;;29.00;15.63;;;;;;;;;;5006813;28;99482;-72
2022/11/28 01:07:29;;;;;;;29.10;14.80;;;;;;;;;;5007453;28;99877;-72
2022/11/28 01:09:55;;;;;;;32.25;17.20;;;;;;;;;;5011199;28;98861;-72
2022/11/28 01:12:21;;;;;;;31.00;18.08;;;;;;;;;;5006682;28;99983;-72
2022/11/28 01:14:48;;;;;;;32.45;17.70;;;;;;;;;;5006986;28;98239;-72
2022/11/28 01:17:14;;;;;;;28.85;18.00;;;;;;;;;;5006808;28;98820;-72
2022/11/28 01:19:40;;;;;;;33.30;18.73;;;;;;;;;;5006207;28;100059;-72
2022/11/28 01:22:07;;;;;;;27.42;15.82;;;;;;;;;;4996145;28;98232;-72
2022/11/28 01:24:33;;;;;;;31.13;18.33;;;;;;;;;;4998899;28;99316;-72
2022/11/28 01:26:59;;;;;;;38.15;17.73;;;;;;;;;;5007195;28;100146;-72
2022/11/28 01:29:26;;;;;;;29.48;17.30;;;;;;;;;;5007040;28;98141;-72
2022/11/28 01:31:52;;;;;;;33.40;17.52;;;;;;;;;;5009659;28;99487;-72
2022/11/28 01:34:19;;;;;;;28.48;18.90;;;;;;;;;;5002183;28;98498;-72
2022/11/28 01:36:45;;;;;;;33.83;17.05;;;;;;;;;;4986741;28;99090;-72
2022/11/28 01:39:14;;;;;;;35.28;18.35;;;;;;;;;;4985319;28;99012;-72
2022/11/28 01:41:40;;;;;;;26.10;16.30;;;;;;;;;;4986891;28;98320;-73
2022/11/28 01:44:27;;;;;;;30.88;18.88;;;;;;;;;;4993150;28;99692;-71
2022/11/28 01:46:53;;;;;;;27.33;17.33;;;;;;;;;;5005913;28;100031;-72
2022/11/28 01:49:23;;;;;;;31.25;17.48;;;;;;;;;;5006609;28;98861;-71
2022/11/28 01:51:51;;;;;;;29.00;17.92;;;;;;;;;;4997063;28;98274;-71
2022/11/28 01:54:19;;;;;;;25.65;16.40;;;;;;;;;;4989157;28;99300;-72
2022/11/28 01:56:51;;;;;;;26.33;17.25;;;;;;;;;;4987253;28;100158;-72
2022/11/28 01:59:18;;;;;;;20.13;15.25;;;;;;;;;;4986365;28;100086;-71
2022/11/28 02:01:45;;;;;;;28.25;17.77;;;;;;;;;;4985359;28;98465;-72
2022/11/28 02:04:12;;;;;;;31.77;16.35;;;;;;;;;;4986118;28;99414;-71
2022/11/28 02:06:39;;;;;;;18.08;15.32;;;;;;;;;;4986435;28;100051;-71
2022/11/28 02:09:13;;;;;;;24.52;16.05;;;;;;;;;;4986528;28;99102;-72
2022/11/28 02:11:46;;;;;;;21.25;16.15;;;;;;;;;;4986685;28;99483;-71
2022/11/28 02:14:18;;;;;;;23.23;16.40;;;;;;;;;;4986345;28;98973;-71
2022/11/28 02:17:04;;;;;;;19.83;14.80;;;;;;;;;;4989393;28;98301;-71
2022/11/28 02:19:48;;;;;;;23.25;15.75;;;;;;;;;;4986088;28;99179;-71
2022/11/28 02:22:15;;;;;;;16.58;14.60;;;;;;;;;;5005401;28;98526;-72
2022/11/28 02:25:02;;;;;;;21.00;15.30;;;;;;;;;;5006227;28;99460;-72
2022/11/28 02:27:38;;;;;;;21.92;15.90;;;;;;;;;;4986297;28;99482;-71
2022/11/28 02:30:04;;;;;;;20.52;15.93;;;;;;;;;;4985263;28;98284;-73
2022/11/28 02:32:30;;;;;;;21.77;14.88;;;;;;;;;;4985746;28;99262;-72
2022/11/28 02:35:00;;;;;;;20.38;15.35;;;;;;;;;;4985599;28;100015;-72
2022/11/28 02:37:27;;;;;;;16.27;13.07;;;;;;;;;;4988981;28;98247;-72
2022/11/28 02:40:06;;;;;;;18.23;13.27;;;;;;;;;;4986172;28;100027;-72
2022/11/28 02:42:39;;;;;;;19.35;16.13;;;;;;;;;;4985842;28;98513;-72
2022/11/28 02:45:09;;;;;;;18.75;13.80;;;;;;;;;;4987079;28;99377;-72
2022/11/28 02:47:37;;;;;;;19.80;14.75;;;;;;;;;;5004159;28;100363;-72
2022/11/28 02:50:06;;;;;;;18.33;14.65;;;;;;;;;;5005577;28;98721;-72
2022/11/28 02:52:35;;;;;;;20.52;15.10;;;;;;;;;;5005964;28;99589;-72
2022/11/28 02:55:01;;;;;;;20.65;14.60;;;;;;;;;;5005304;28;100531;-72
2022/11/28 02:57:33;;;;;;;25.35;14.30;;;;;;;;;;5004903;28;98774;-72
2022/11/28 02:59:59;;;;;;;21.70;14.43;;;;;;;;;;4998471;28;99500;-72
2022/11/28 03:02:30;;;;;;;24.63;14.82;;;;;;;;;;4985915;28;98210;-72
2022/11/28 03:05:11;;;;;;;21.83;15.52;;;;;;;;;;4985551;28;99504;-72
2022/11/28 03:07:55;;;;;;;19.15;14.38;;;;;;;;;;4985690;28;100157;-72
2022/11/28 03:10:29;;;;;;;23.52;15.35;;;;;;;;;;4986862;28;98360;-72
2022/11/28 03:12:58;;;;;;;22.83;15.40;;;;;;;;;;4990228;28;100137;-72
2022/11/28 03:15:31;;;;;;;19.65;15.43;;;;;;;;;;5008543;28;100457;-72
2022/11/28 03:17:57;;;;;;;;;;;;;;;;;;4997703;28;98222;-72
2022/11/28 03:20:34;;;;;;;19.83;12.98;;;;;;;;;;5007360;28;129134;-72
2022/11/28 03:23:07;;;;;;;19.05;13.77;;;;;;;;;;5012749;28;100114;-72
2022/11/28 03:25:40;;;;;;;21.58;14.10;;;;;;;;;;5008406;28;99662;-72
2022/11/28 03:28:27;;;;;;;17.73;13.25;;;;;;;;;;5009238;28;100376;-71
2022/11/28 03:30:59;;;;;;;21.48;14.55;;;;;;;;;;5009377;28;98322;-72
2022/11/28 03:33:27;;;;;;;18.65;13.20;;;;;;;;;;5002211;28;99454;-72
2022/11/28 03:35:57;;;;;;;22.58;14.38;;;;;;;;;;4989141;28;100033;-73
2022/11/28 03:38:29;;;;;;;14.77;13.25;;;;;;;;;;4988493;28;98361;-72
2022/11/28 03:40:57;;;;;;;16.23;13.03;;;;;;;;;;4989481;28;99074;-72
2022/11/28 03:43:26;;;;;;;21.40;14.45;;;;;;;;;;4988813;28;100045;-72
2022/11/28 03:45:54;;;;;;;18.10;14.10;;;;;;;;;;4990752;28;98335;-71
2022/11/28 03:48:24;;;;;;;15.27;13.48;;;;;;;;;;4988167;28;99542;-72
2022/11/28 03:50:57;;;;;;;21.08;15.07;;;;;;;;;;4998629;28;98380;-73
2022/11/28 03:53:26;;;;;;;23.48;13.65;;;;;;;;;;5007886;28;99373;-73
2022/11/28 03:55:56;;;;;;;20.20;14.57;;;;;;;;;;5008705;28;100325;-73
2022/11/28 03:58:29;;;;;;;16.48;13.15;;;;;;;;;;5008821;28;98307;-72
2022/11/28 04:00:58;;;;;;;20.27;15.80;;;;;;;;;;5006944;28;99519;-72
2022/11/28 04:03:31;;;;;;;28.02;14.50;;;;;;;;;;4988222;28;99320;-72
2022/11/28 04:06:15;;;;;;;21.90;14.82;;;;;;;;;;4988786;28;98252;-73
2022/11/28 04:08:44;;;;;;;25.33;15.93;;;;;;;;;;5007521;28;99926;-72
2022/11/28 04:11:15;;;;;;;25.30;15.63;;;;;;;;;;5008026;28;98257;-72
2022/11/28 04:13:50;;;;;;;27.95;17.60;;;;;;;;;;4999264;28;98832;-72
2022/11/28 04:16:28;;;;;;;19.52;15.73;;;;;;;;;;4999493;28;100054;-74
2022/11/28 04:19:01;;;;;;;20.90;16.02;;;;;;;;;;5009158;28;98552;-72
2022/11/28 04:21:46;;;;;;;23.88;16.98;;;;;;;;;;4994718;28;98798;-71
2022/11/28 04:24:18;;;;;;;21.63;15.88;;;;;;;;;;4992812;28;99113;-72
2022/11/28 04:26:46;;;;;;;24.15;17.83;;;;;;;;;;5008113;28;98598;-72
2022/11/28 04:29:16;;;;;;;23.38;17.05;;;;;;;;;;5007595;28;98562;-72
2022/11/28 04:31:44;;;;;;;29.30;17.45;;;;;;;;;;5011059;28;99978;-73
2022/11/28 04:34:13;;;;;;;32.42;18.35;;;;;;;;;;5008457;28;99743;-72
2022/11/28 04:36:39;;;;;;;35.60;18.85;;;;;;;;;;5005966;28;99079;-72
2022/11/28 04:39:08;;;;;;;26.48;17.30;;;;;;;;;;5008159;28;98244;-72
2022/11/28 04:41:38;;;;;;;25.40;17.20;;;;;;;;;;5006350;28;99541;-72
2022/11/28 04:44:13;;;;;;;36.20;20.38;;;;;;;;;;5007870;28;100014;-72
2022/11/28 04:46:46;;;;;;;26.67;17.65;;;;;;;;;;5007712;28;98997;-72
2022/11/28 04:49:12;;;;;;;23.33;17.08;;;;;;;;;;5007214;28;99346;-72
2022/11/28 04:51:45;;;;;;;33.65;19.50;;;;;;;;;;5010029;28;100669;-72
2022/11/28 04:54:23;;;;;;;26.70;17.48;;;;;;;;;;5008128;28;99529;-72
2022/11/28 04:57:02;;;;;;;28.10;19.00;;;;;;;;;;5007113;28;100055;-72
2022/11/28 04:59:30;;;;;;;31.90;19.25;;;;;;;;;;4992521;28;98264;-72
2022/11/28 05:01:57;;;;;;;32.50;19.88;;;;;;;;;;4986740;28;98836;-72
2022/11/28 05:04:24;;;;;;;26.80;18.48;;;;;;;;;;4986037;28;99057;-71
2022/11/28 05:06:59;;;;;;;26.23;17.20;;;;;;;;;;4987221;28;98247;-72
2022/11/28 05:09:25;;;;;;;25.17;17.00;;;;;;;;;;4987039;28;98546;-72
2022/11/28 05:11:52;;;;;;;28.40;18.00;;;;;;;;;;4986120;28;100125;-72
2022/11/28 05:14:18;;;;;;;31.35;19.15;;;;;;;;;;5004178;28;98475;-71
2022/11/28 05:16:44;;;;;;;21.75;17.08;;;;;;;;;;4989312;28;100663;-71
2022/11/28 05:19:11;;;;;;;29.58;19.45;;;;;;;;;;4987776;28;98288;-71
2022/11/28 05:21:37;;;;;;;25.30;17.75;;;;;;;;;;4987003;28;98678;-71
2022/11/28 05:24:04;;;;;;;24.25;17.55;;;;;;;;;;4986556;28;100455;-73
2022/11/28 05:26:31;;;;;;;24.80;18.27;;;;;;;;;;4986304;28;98296;-72
2022/11/28 05:28:58;;;;;;;22.92;17.60;;;;;;;;;;4987657;28;99387;-72
2022/11/28 05:31:24;;;;;;;27.48;18.83;;;;;;;;;;4986206;28;99994;-72
2022/11/28 05:33:50;;;;;;;29.02;19.27;;;;;;;;;;4987072;28;99320;-72
2022/11/28 05:36:17;;;;;;;22.88;17.45;;;;;;;;;;4990519;28;99472;-72
2022/11/28 05:38:43;;;;;;;31.25;19.77;;;;;;;;;;4986376;28;98280;-72
2022/11/28 05:41:17;;;;;;;21.70;17.27;;;;;;;;;;4986816;28;98736;-73
2022/11/28 05:43:43;;;;;;;33.72;20.50;;;;;;;;;;4995594;28;99214;-73
2022/11/28 05:46:10;;;;;;;33.65;20.00;;;;;;;;;;5005984;28;98435;-72
2022/11/28 05:48:36;;;;;;;33.40;19.83;;;;;;;;;;5006657;28;99059;-73
2022/11/28 05:51:03;;;;;;;27.25;19.08;;;;;;;;;;4996064;28;99261;-73
2022/11/28 05:53:30;;;;;;;29.88;18.45;;;;;;;;;;5006331;28;98232;-72
2022/11/28 05:55:56;;;;;;;27.35;18.25;;;;;;;;;;5007303;28;99742;-72
2022/11/28 05:58:22;;;;;;;36.08;20.05;;;;;;;;;;5010388;28;100211;-72
2022/11/28 06:00:49;;;;;;;25.15;17.88;;;;;;;;;;5005976;28;100856;-72
2022/11/28 06:03:15;;;;;;;28.15;18.45;;;;;;;;;;4991803;28;100116;-72
2022/11/28 06:05:42;;;;;;;27.65;18.23;;;;;;;;;;4987160;28;98507;-72
2022/11/28 06:08:12;;;;;;;24.52;17.48;;;;;;;;;;4986631;28;99841;-72
2022/11/28 06:10:39;;;;;;;26.48;17.10;;;;;;;;;;4986698;28;100489;-72
2022/11/28 06:13:05;;;;;;;24.17;16.42;;;;;;;;;;4991824;28;99064;-72
2022/11/28 06:15:32;;;;;;;23.33;17.88;;;;;;;;;;5003100;28;99604;-72
2022/11/28 06:18:03;;;;;;;25.73;17.40;;;;;;;;;;4986878;28;99827;-72
2022/11/28 06:20:29;;;;;;;28.27;19.05;;;;;;;;;;4989347;28;99059;-72
2022/11/28 06:22:56;;;;;;;26.63;17.80;;;;;;;;;;4987317;28;99838;-72
2022/11/28 06:25:22;;;;;;;29.35;19.08;;;;;;;;;;4986753;28;98755;-72
2022/11/28 06:27:48;;;;;;;28.77;18.13;;;;;;;;;;4986265;28;99554;-72
2022/11/28 06:30:15;;;;;;;27.30;18.20;;;;;;;;;;4986606;28;100459;-72
2022/11/28 06:32:41;;;;;;;30.88;18.30;;;;;;;;;;4986625;28;98276;-72
2022/11/28 06:35:07;;;;;;;30.83;19.27;;;;;;;;;;4986224;28;99852;-72
2022/11/28 06:37:34;;;;;;;30.55;18.92;;;;;;;;;;4986198;28;100265;-72
2022/11/28 06:40:00;;;;;;;24.63;17.95;;;;;;;;;;4997540;28;98557;-72
2022/11/28 06:42:26;;;;;;;33.50;20.20;;;;;;;;;;5005449;28;99408;-71
2022/11/28 06:44:53;;;;;;;29.48;18.92;;;;;;;;;;4988670;28;99060;-71
2022/11/28 06:47:19;;;;;;;31.50;18.92;;;;;;;;;;4991492;28;99509;-72
2022/11/28 06:49:47;;;;;;;29.67;19.80;;;;;;;;;;5002736;28;100215;-73
2022/11/28 06:52:13;;;;;;;37.20;21.70;;;;;;;;;;5009103;28;99608;-70
2022/11/28 06:54:40;;;;;;;28.50;19.20;;;;;;;;;;5004155;28;98584;-71
2022/11/28 06:57:06;;;;;;;30.58;19.85;;;;;;;;;;5004324;28;100603;-71
2022/11/28 06:59:33;;;;;;;27.25;18.23;;;;;;;;;;5000841;28;102033;-71
2022/11/28 07:02:01;;;;;;;36.00;20.73;;;;;;;;;;5009242;28;99486;-71
2022/11/28 07:04:33;;;;;;;29.08;19.48;;;;;;;;;;5008098;28;98171;-71
2022/11/28 07:06:59;;;;;;;27.33;17.92;;;;;;;;;;5008804;28;99662;-71
2022/11/28 07:09:25;;;;;;;30.75;20.10;;;;;;;;;;5007287;28;100417;-71
2022/11/28 07:11:52;;;;;;;33.85;20.30;;;;;;;;;;5007604;28;98279;-71
2022/11/28 07:14:18;;;;;;;35.70;22.15;;;;;;;;;;5009079;28;99838;-71
2022/11/28 07:16:46;;;;;;;11.23;10.10;;;;;;;;;;5009112;28;100289;-71
2022/11/28 07:19:13;;;;;;;15.75;14.02;;;;;;;;;;5010329;28;98427;-72
2022/11/28 07:21:40;;;;;;;13.88;12.50;;;;;;;;;;5007640;28;99876;-71
2022/11/28 07:24:06;;;;;;;23.08;16.20;;;;;;;;;;5011658;28;100015;-72
2022/11/28 07:26:32;;;;;;;25.73;16.33;;;;;;;;;;5007251;28;98839;-72
2022/11/28 07:28:59;;;;;;;25.10;17.30;;;;;;;;;;5007863;28;99583;-72
2022/11/28 07:31:27;;;;;;;32.08;18.45;;;;;;;;;;5007996;28;98530;-72
2022/11/28 07:33:53;;;;;;;32.95;19.88;;;;;;;;;;5009243;28;99616;-72
2022/11/28 07:36:21;;;;;;;31.77;19.40;;;;;;;;;;5008619;28;99220;-73
2022/11/28 07:38:49;;;;;;;36.03;20.42;;;;;;;;;;5008237;28;98663;-74
2022/11/28 07:41:15;;;;;;;36.60;20.88;;;;;;;;;;5009329;28;98207;-73
2022/11/28 07:43:43;;;;;;;31.10;20.08;;;;;;;;;;5008595;28;100600;-73
2022/11/28 07:46:11;;;;;;;36.38;21.40;;;;;;;;;;5011941;28;98260;-73
2022/11/28 07:48:38;;;;;;;33.55;21.10;;;;;;;;;;5007815;28;98994;-73
2022/11/28 07:51:06;;;;;;;44.22;22.73;;;;;;;;;;5007919;28;98327;-73
2022/11/28 07:53:32;;;;;;;41.88;22.85;;;;;;;;;;5006161;28;98607;-73
2022/11/28 07:56:02;;;;;;;40.35;21.60;;;;;;;;;;5007806;28;100095;-73
2022/11/28 07:58:29;;;;;;;43.10;23.83;;;;;;;;;;5007955;28;98538;-74
2022/11/28 08:00:56;;;;;;;40.28;22.00;;;;;;;;;;5008587;28;99350;-73
2022/11/28 08:03:22;;;;;;;37.55;22.10;;;;;;;;;;5008202;28;99131;-73
2022/11/28 08:05:49;;;;;;;45.50;22.48;;;;;;;;;;5008004;28;98483;-74
2022/11/28 08:08:16;;;;;;;50.90;24.10;;;;;;;;;;5011537;28;99064;-73
2022/11/28 08:10:43;;;;;;;52.90;25.25;;;;;;;;;;5008780;28;98247;-73
2022/11/28 08:13:09;;;;;;;44.33;22.10;;;;;;;;;;5008085;28;100068;-73
2022/11/28 08:15:36;;;;;;;46.50;23.25;;;;;;;;;;5008023;28;100173;-73
2022/11/28 08:18:03;;;;;;;45.38;23.75;;;;;;;;;;5008083;28;98265;-73
2022/11/28 08:20:29;;;;;;;49.30;25.45;;;;;;;;;;5007496;28;99573;-73
2022/11/28 08:22:55;;;;;;;46.17;23.27;;;;;;;;;;5008732;28;100163;-73
2022/11/28 08:25:22;;;;;;;51.22;24.48;;;;;;;;;;5008534;28;98355;-73
2022/11/28 08:27:48;;;;;;;41.90;22.02;;;;;;;;;;5006913;28;99625;-73
2022/11/28 08:30:14;;;;;;;52.75;25.40;;;;;;;;;;4991887;28;100491;-73
2022/11/28 08:32:41;;;;;;;56.75;25.60;;;;;;;;;;4987227;28;98910;-73
2022/11/28 08:35:07;;;;;;;52.33;25.75;;;;;;;;;;4987431;28;99091;-72
2022/11/28 08:37:34;;;;;;;45.67;23.15;;;;;;;;;;4988142;28;98256;-73
2022/11/28 08:40:00;;;;;;;46.55;23.88;;;;;;;;;;5005076;28;98763;-73
2022/11/28 08:42:27;;;;;;;40.70;23.13;;;;;;;;;;5006177;28;100018;-73
2022/11/28 08:44:53;;;;;;;58.67;26.00;;;;;;;;;;5007291;28;98270;-73
2022/11/28 08:47:20;;;;;;;39.15;21.10;;;;;;;;;;5007563;28;99725;-73
2022/11/28 08:49:46;;;;;;;43.95;24.00;;;;;;;;;;5005986;28;99071;-73
2022/11/28 08:52:13;;;;;;;48.58;25.23;;;;;;;;;;5010368;28;98180;-73
2022/11/28 08:54:40;;;;;;;47.60;25.13;;;;;;;;;;5007363;28;100225;-73
2022/11/28 08:57:07;;;;;;;45.83;24.85;;;;;;;;;;5007325;28;98264;-73
2022/11/28 08:59:33;;;;;;;59.20;27.13;;;;;;;;;;5007947;28;99682;-73
2022/11/28 09:01:59;;;;;;;53.08;25.75;;;;;;;;;;5005038;28;100034;-73
2022/11/28 09:04:26;;;;;;;53.67;24.80;;;;;;;;;;5007459;28;98325;-73
2022/11/28 09:06:52;;;;;;;50.28;24.60;;;;;;;;;;5006977;28;99645;-73
2022/11/28 09:09:19;;;;;;;53.50;25.15;;;;;;;;;;5007140;28;100269;-73
2022/11/28 09:11:46;;;;;;;50.38;25.58;;;;;;;;;;5010957;28;98326;-73
2022/11/28 09:14:13;;;;;;;56.85;27.77;;;;;;;;;;5007595;28;101409;-73
2022/11/28 09:16:39;;;;;;;54.92;25.88;;;;;;;;;;5006522;28;98655;-73
2022/11/28 09:19:07;;;;;;;41.67;24.02;;;;;;;;;;5008025;28;99735;-72
2022/11/28 09:21:34;;;;;;;57.30;24.02;;;;;;;;;;5006673;28;100137;-73
2022/11/28 09:24:00;;;;;;;53.13;24.70;;;;;;;;;;5007154;28;98279;-72
2022/11/28 09:26:28;;;;;;;52.65;26.75;;;;;;;;;;5007442;28;99551;-72
2022/11/28 09:28:55;;;;;;;56.83;25.77;;;;;;;;;;5007229;28;100179;-72
2022/11/28 09:31:21;;;;;;;56.08;25.83;;;;;;;;;;5005948;28;98259;-72
2022/11/28 09:33:48;;;;;;;68.45;26.90;;;;;;;;;;5010869;28;100710;-72
2022/11/28 09:36:16;;;;;;;69.90;28.08;;;;;;;;;;5007689;28;98542;-72
2022/11/28 09:38:43;;;;;;;64.80;27.90;;;;;;;;;;5006562;28;100025;-73
2022/11/28 09:41:15;;;;;;;60.92;27.33;;;;;;;;;;5007232;28;100201;-73
2022/11/28 09:43:43;;;;;;;58.70;27.65;;;;;;;;;;5006675;28;98111;-73
2022/11/28 09:46:12;;;;;;;51.40;24.20;;;;;;;;;;5006522;28;99353;-73
2022/11/28 09:48:43;;;;;;;45.22;24.63;;;;;;;;;;5006692;28;100300;-73
2022/11/28 09:51:12;;;;;;;60.30;28.27;;;;;;;;;;5006387;28;99712;-73
2022/11/28 09:53:44;;;;;;;44.50;22.90;;;;;;;;;;5006310;28;98596;-73
2022/11/28 09:56:14;;;;;;;54.90;25.43;;;;;;;;;;5009475;28;100029;-73
2022/11/28 09:58:44;;;;;;;62.33;26.88;;;;;;;;;;5005142;28;98674;-73
2022/11/28 10:01:11;;;;;;;63.85;28.48;;;;;;;;;;5007089;28;99932;-73
2022/11/28 10:03:47;;;;;;;80.65;28.38;;;;;;;;;;5006757;28;98373;-73
2022/11/28 10:06:13;;;;;;;86.10;31.40;;;;;;;;;;5006268;28;99772;-72
2022/11/28 10:08:52;;;;;;;113.35;33.55;;;;;;;;;;5006175;28;99933;-72
2022/11/28 10:11:47;;;;;;;113.07;33.50;;;;;;;;;;5007150;28;98196;-72
2022/11/28 10:14:26;;;;;;;122.13;34.03;;;;;;;;;;4988241;28;98900;-72
2022/11/28 10:16:56;;;;;;;130.40;37.42;;;;;;;;;;5006406;28;99255;-72
2022/11/28 10:19:37;;;;;;;120.80;33.80;;;;;;;;;;5008635;28;98756;-72
2022/11/28 10:22:25;;;;;;;161.98;39.25;;;;;;;;;;5005721;28;100014;-72
2022/11/28 10:24:54;;;;;;;133.43;37.45;;;;;;;;;;4988944;28;98212;-72
2022/11/28 10:27:24;;;;;;;138.40;38.58;;;;;;;;;;4986085;28;99403;-72
2022/11/28 10:29:58;;;;;;;169.52;40.72;;;;;;;;;;4986931;28;100811;-72
2022/11/28 10:32:31;;;;;;;195.32;42.85;;;;;;;;;;4986540;28;98305;-71
2022/11/28 10:34:57;;;;;;;;;;;;;;;;;;4986413;28;99490;-71
2022/11/28 10:37:25;;;;;;;159.25;38.10;;;;;;;;;;4985409;28;129554;-72
2022/11/28 10:39:51;;;;;;;177.48;41.97;;;;;;;;;;4986569;28;98399;-72
2022/11/28 10:42:24;;;;;;;180.50;43.30;;;;;;;;;;4988885;28;99614;-72
2022/11/28 10:44:56;;;;;;;209.38;45.90;;;;;;;;;;4986505;28;98608;-71
2022/11/28 10:47:31;;;;;;;178.10;45.97;;;;;;;;;;4984723;28;99509;-72
2022/11/28 10:50:00;;;;;;;178.23;44.45;;;;;;;;;;4986322;28;100094;-71
2022/11/28 10:52:35;;;;;;;231.25;45.30;;;;;;;;;;5002999;28;98293;-71
2022/11/28 10:55:17;;;;;;;189.75;43.85;;;;;;;;;;5005446;28;99502;-71
2022/11/28 10:57:50;;;;;;;149.57;43.38;;;;;;;;;;5002457;28;99285;-71
2022/11/28 11:00:19;;;;;;;;;;;;;;;;;;5004280;28;103203;-72
2022/11/28 11:02:55;;;;;;;215.88;46.45;;;;;;;;;;5004116;28;128990;-72
2022/11/28 11:05:26;;;;;;;30.58;17.50;;;;;;;;;;5007586;28;99383;-72
2022/11/28 11:08:11;;;;;;;70.82;30.25;;;;;;;;;;5001834;28;99475;-71
2022/11/28 11:10:40;;;;;;;115.85;39.45;;;;;;;;;;4999878;28;100022;-71
2022/11/28 11:13:12;;;;;;;126.10;38.78;;;;;;;;;;4999473;28;100298;-72
2022/11/28 11:15:38;;;;;;;136.83;40.97;;;;;;;;;;5002260;28;99493;-72
2022/11/28 11:18:19;;;;;;;142.88;42.88;;;;;;;;;;5000866;28;99111;-73
2022/11/28 11:20:46;;;;;;;148.32;40.30;;;;;;;;;;4991901;28;99051;-71
2022/11/28 11:23:12;;;;;;;156.77;41.90;;;;;;;;;;5000397;28;99538;-71
2022/11/28 11:25:52;;;;;;;175.18;45.65;;;;;;;;;;5008501;28;100537;-71
2022/11/28 11:28:27;;;;;;;162.70;40.67;;;;;;;;;;5003049;28;99697;-72
2022/11/28 11:30:59;;;;;;;196.95;49.10;;;;;;;;;;5002229;28;100166;-71
2022/11/28 11:33:29;;;;;;;149.05;43.55;;;;;;;;;;5006136;28;98371;-72
2022/11/28 11:35:55;;;;;;;184.57;46.63;;;;;;;;;;4996618;28;99325;-71
2022/11/28 11:38:22;;;;;;;203.98;49.60;;;;;;;;;;5005364;28;100161;-71
2022/11/28 11:40:49;;;;;;;195.55;48.03;;;;;;;;;;5006852;28;98319;-71
2022/11/28 11:43:26;;;;;;;152.63;44.65;;;;;;;;;;5008386;28;99451;-71
2022/11/28 11:46:14;;;;;;;157.18;44.90;;;;;;;;;;5005889;28;100069;-71
2022/11/28 11:48:42;;;;;;;161.18;44.38;;;;;;;;;;5011291;28;98199;-71
2022/11/28 11:51:28;;;;;;;160.98;46.58;;;;;;;;;;5007071;28;99256;-71
2022/11/28 11:54:05;;;;;;;171.55;44.58;;;;;;;;;;5008254;28;98141;-71
2022/11/28 11:56:35;;;;;;;215.82;47.95;;;;;;;;;;5008869;28;99763;-71
2022/11/28 11:59:04;;;;;;;165.07;45.35;;;;;;;;;;5007647;28;99228;-71
2022/11/28 12:01:31;;;;;;;148.82;45.08;;;;;;;;;;5008790;28;98326;-71
2022/11/28 12:03:59;;;;;;;158.52;46.72;;;;;;;;;;5008045;28;99470;-70
2022/11/28 12:06:42;;;;;;;153.05;45.97;;;;;;;;;;5007408;28;100240;-71
2022/11/28 12:09:08;;;;;;;133.85;44.53;;;;;;;;;;5006770;28;98504;-71
2022/11/28 12:11:37;;;;;;;139.88;44.65;;;;;;;;;;5000023;28;99807;-70
2022/11/28 12:14:23;;;;;;;135.05;44.53;;;;;;;;;;5008749;28;98164;-70
2022/11/28 12:16:57;;;;;;;146.80;45.30;;;;;;;;;;4993258;28;99713;-70
2022/11/28 12:19:30;;;;;;;125.50;40.47;;;;;;;;;;4987426;28;100031;-71
2022/11/28 12:22:18;;;;;;;120.13;41.78;;;;;;;;;;5003700;28;98167;-70
2022/11/28 12:24:53;;;;;;;134.98;43.25;;;;;;;;;;5007244;28;98584;-70
2022/11/28 12:27:23;;;;;;;133.40;42.63;;;;;;;;;;5007563;28;100208;-70
2022/11/28 12:29:52;;;;;;;134.65;42.47;;;;;;;;;;5007702;28;98225;-71
2022/11/28 12:32:37;;;;;;;126.38;43.67;;;;;;;;;;5007928;28;99037;-71
2022/11/28 12:35:03;;;;;;;123.15;41.83;;;;;;;;;;5010806;28;100228;-71
2022/11/28 12:38:08;;;;;;;117.00;41.17;;;;;;;;;;5007561;28;98657;-71
2022/11/28 12:40:37;;;;;;;122.30;40.15;;;;;;;;;;4925627;28;99904;-71
2022/11/28 12:43:29;;;;;;;124.70;41.20;;;;;;;;;;4925930;28;98316;-70
2022/11/28 12:46:14;;;;;;;114.50;40.75;;;;;;;;;;4980164;28;99578;-71
2022/11/28 12:48:50;;;;;;;129.40;43.13;;;;;;;;;;5006965;28;100232;-71
2022/11/28 12:51:24;;;;;;;124.95;41.33;;;;;;;;;;5003382;28;98400;-71
2022/11/28 12:53:51;;;;;;;106.85;35.70;;;;;;;;;;5006949;28;98812;-72
2022/11/28 12:56:29;;;;;;;119.60;40.90;;;;;;;;;;5007024;28;100182;-70
2022/11/28 12:59:13;;;;;;;118.25;40.97;;;;;;;;;;5010484;28;98266;-71
2022/11/28 13:01:39;;;;;;;123.47;42.35;;;;;;;;;;5006552;28;100013;-70
2022/11/28 13:04:14;;;;;;;107.63;39.17;;;;;;;;;;5007961;28;98278;-70
2022/11/28 13:06:41;;;;;;;119.65;40.17;;;;;;;;;;5007467;28;99172;-71
2022/11/28 13:09:24;;;;;;;123.53;41.25;;;;;;;;;;5006899;28;100102;-70
2022/11/28 13:11:54;;;;;;;107.07;39.05;;;;;;;;;;5007659;28;98555;-70
2022/11/28 13:14:38;;;;;;;132.13;43.38;;;;;;;;;;5007945;28;99384;-70
2022/11/28 13:17:17;;;;;;;132.18;43.03;;;;;;;;;;5006029;28;100300;-70
2022/11/28 13:20:02;;;;;;;115.68;40.97;;;;;;;;;;5007141;28;98265;-71
2022/11/28 13:22:34;;;;;;;124.53;42.60;;;;;;;;;;5002411;28;99277;-71
2022/11/28 13:25:05;;;;;;;123.03;40.73;;;;;;;;;;5005901;28;98151;-71
2022/11/28 13:27:38;;;;;;;112.60;42.23;;;;;;;;;;5001415;28;98896;-71
2022/11/28 13:30:13;;;;;;;128.52;44.20;;;;;;;;;;4999586;28;98919;-71
2022/11/28 13:32:40;;;;;;;113.90;41.75;;;;;;;;;;4999266;28;98705;-71
2022/11/28 13:35:09;;;;;;;119.82;42.25;;;;;;;;;;4995118;28;99572;-72
2022/11/28 13:37:39;;;;;;;108.65;41.63;;;;;;;;;;5005289;28;99997;-71
2022/11/28 13:40:29;;;;;;;89.45;37.78;;;;;;;;;;5003717;28;98741;-71
2022/11/28 13:43:14;;;;;;;87.03;38.58;;;;;;;;;;5007487;28;98838;-71
2022/11/28 13:45:41;;;;;;;97.25;37.97;;;;;;;;;;5002134;28;98348;-71
2022/11/28 13:48:26;;;;;;;100.82;38.95;;;;;;;;;;5001946;28;99494;-71
2022/11/28 13:51:15;;;;;;;98.30;40.38;;;;;;;;;;5004606;28;100362;-71
2022/11/28 13:54:08;;;;;;;93.95;38.72;;;;;;;;;;5004987;28;98466;-71
2022/11/28 13:56:34;;;;;;;102.80;39.97;;;;;;;;;;4986622;28;99421;-71
2022/11/28 13:59:01;;;;;;;95.38;37.67;;;;;;;;;;4986180;28;98817;-72
2022/11/28 14:01:29;;;;;;;101.75;39.03;;;;;;;;;;4986666;28;98374;-73
2022/11/28 14:03:56;;;;;;;91.15;37.63;;;;;;;;;;5002215;28;99401;-71
2022/11/28 14:06:30;;;;;;;96.55;37.75;;;;;;;;;;5007471;28;100106;-72
2022/11/28 14:09:17;;;;;;;110.20;39.55;;;;;;;;;;4988938;28;98951;-72
2022/11/28 14:11:48;;;;;;;117.40;39.03;;;;;;;;;;5005981;28;98904;-72
2022/11/28 14:14:21;;;;;;;103.22;38.60;;;;;;;;;;5006364;28;98547;-73
2022/11/28 14:16:53;;;;;;;102.00;39.13;;;;;;;;;;5005099;28;99433;-73
2022/11/28 14:19:29;;;;;;;98.05;37.97;;;;;;;;;;5000720;28;100172;-72
2022/11/28 14:22:14;;;;;;;98.25;38.58;;;;;;;;;;5005959;28;98172;-71
2022/11/28 14:25:07;;;;;;;99.10;39.40;;;;;;;;;;5005108;28;99102;-71
2022/11/28 14:27:35;;;;;;;83.43;34.72;;;;;;;;;;4960516;28;102008;-72
2022/11/28 14:30:04;;;;;;;115.00;39.53;;;;;;;;;;4990479;28;98335;-73